createdAt,value
2023-03-03T00:00:13.008Z,12.39
2023-03-03T00:02:40.591Z,12.32
2023-03-03T00:05:07.909Z,12.27
2023-03-03T00:07:35.068Z,12.39
2023-03-03T00:10:02.535Z,12.56
2023-03-03T00:12:30.233Z,12.53
2023-03-03T00:14:57.653Z,12.58
2023-03-03T00:17:26.300Z,12.47
2023-03-03T00:19:53.679Z,12.54
2023-03-03T00:22:30.883Z,12.60
2023-03-03T00:25:02.416Z,12.68
2023-03-03T00:27:30.622Z,12.59
2023-03-03T00:29:58.329Z,12.60
2023-03-03T00:32:27.471Z,12.47
2023-03-03T00:34:55.856Z,12.43
2023-03-03T00:37:33.952Z,12.44
2023-03-03T00:40:13.603Z,12.30
2023-03-03T00:42:40.763Z,12.44
2023-03-03T00:45:20.559Z,12.36
2023-03-03T00:47:47.858Z,12.50
2023-03-03T00:50:35.650Z,12.59
2023-03-03T00:53:04.420Z,12.34
2023-03-03T00:55:32.529Z,12.47
2023-03-03T00:57:59.861Z,12.28
2023-03-03T01:00:28.053Z,12.26
2023-03-03T01:02:55.667Z,12.24
2023-03-03T01:05:23.891Z,12.31
2023-03-03T01:07:51.112Z,12.20
2023-03-03T01:10:18.653Z,11.56
2023-03-03T01:12:45.857Z,11.89
2023-03-03T01:15:13.207Z,11.96
2023-03-03T01:17:41.649Z,12.20
2023-03-03T01:20:11.214Z,12.18
2023-03-03T01:22:38.426Z,12.18
2023-03-03T01:25:05.940Z,11.89
2023-03-03T01:27:34.574Z,11.88
2023-03-03T01:30:01.995Z,12.11
2023-03-03T01:32:30.044Z,12.12
2023-03-03T01:34:57.403Z,11.95
2023-03-03T01:37:24.580Z,12.29
2023-03-03T01:39:53.596Z,12.32
2023-03-03T01:42:21.017Z,12.18
2023-03-03T01:44:48.376Z,12.39
2023-03-03T01:47:22.571Z,12.60
2023-03-03T01:49:50.318Z,12.16
2023-03-03T01:52:21.369Z,11.90
2023-03-03T01:54:50.937Z,12.16
2023-03-03T01:57:19.737Z,12.34
2023-03-03T01:59:47.848Z,12.43
2023-03-03T02:02:15.088Z,12.58
2023-03-03T02:04:42.537Z,12.55
2023-03-03T02:07:11.692Z,12.74
2023-03-03T02:09:46.931Z,12.62
2023-03-03T02:12:15.357Z,12.78
2023-03-03T02:14:42.532Z,12.92
2023-03-03T02:17:09.699Z,12.91
2023-03-03T02:19:52.703Z,12.96
2023-03-03T02:22:21.971Z,12.95
2023-03-03T02:24:53.753Z,13.10
2023-03-03T02:27:21.138Z,13.14
2023-03-03T02:29:48.458Z,13.23
2023-03-03T02:32:15.936Z,13.13
2023-03-03T02:34:46.927Z,13.31
2023-03-03T02:37:14.185Z,13.47
2023-03-03T02:39:41.640Z,13.43
2023-03-03T02:42:09.051Z,13.56
2023-03-03T02:44:36.741Z,13.57
2023-03-03T02:47:04.218Z,13.57
2023-03-03T02:49:32.304Z,13.55
2023-03-03T02:51:59.900Z,13.61
2023-03-03T02:54:28.223Z,13.63
2023-03-03T02:56:55.387Z,13.60
2023-03-03T02:59:22.573Z,13.60
2023-03-03T03:01:50.222Z,13.65
2023-03-03T03:04:18.882Z,13.71
2023-03-03T03:06:46.596Z,13.72
2023-03-03T03:09:15.056Z,13.77
2023-03-03T03:11:42.827Z,13.81
2023-03-03T03:14:10.885Z,13.73
2023-03-03T03:16:38.574Z,13.84
2023-03-03T03:19:06.016Z,13.73
2023-03-03T03:21:33.778Z,13.82
2023-03-03T03:24:02.179Z,13.90
2023-03-03T03:26:31.385Z,13.85
2023-03-03T03:28:59.274Z,13.85
2023-03-03T03:31:26.843Z,13.98
2023-03-03T03:33:54.110Z,13.81
2023-03-03T03:36:24.665Z,14.09
2023-03-03T03:38:53.232Z,14.12
2023-03-03T03:41:20.472Z,14.15
2023-03-03T03:43:47.703Z,14.16
2023-03-03T03:46:15.377Z,14.18
2023-03-03T03:48:42.579Z,14.23
2023-03-03T03:51:11.332Z,13.75
2023-03-03T03:53:39.409Z,13.68
2023-03-03T03:56:06.759Z,13.95
2023-03-03T03:58:34.123Z,14.10
2023-03-03T04:01:05.267Z,14.07
2023-03-03T04:03:33.427Z,14.24
2023-03-03T04:06:01.180Z,14.32
2023-03-03T04:08:28.331Z,14.42
2023-03-03T04:10:56.230Z,14.44
2023-03-03T04:13:24.446Z,14.32
2023-03-03T04:15:51.783Z,14.17
2023-03-03T04:18:19.640Z,14.27
2023-03-03T04:20:47.044Z,14.41
2023-03-03T04:23:14.828Z,14.43
2023-03-03T04:25:42.522Z,14.48
2023-03-03T04:28:12.826Z,14.40
2023-03-03T04:30:40.277Z,14.35
2023-03-03T04:33:07.811Z,14.42
2023-03-03T04:35:36.815Z,14.24
2023-03-03T04:38:05.700Z,14.45
2023-03-03T04:40:33.942Z,14.21
2023-03-03T04:43:01.591Z,14.46
2023-03-03T04:45:28.935Z,14.43
2023-03-03T04:47:56.512Z,14.50
2023-03-03T04:50:23.720Z,14.52
2023-03-03T04:52:51.006Z,14.49
2023-03-03T04:55:18.703Z,14.44
2023-03-03T04:57:46.632Z,14.54
2023-03-03T05:00:14.019Z,14.56
2023-03-03T05:02:41.665Z,14.54
2023-03-03T05:05:10.632Z,14.50
2023-03-03T05:07:37.792Z,14.34
2023-03-03T05:10:05.752Z,14.58
2023-03-03T05:12:32.978Z,14.68
2023-03-03T05:15:00.097Z,14.74
2023-03-03T05:17:27.533Z,14.71
2023-03-03T05:19:57.306Z,14.73
2023-03-03T05:22:24.989Z,14.83
2023-03-03T05:24:52.532Z,14.89
2023-03-03T05:27:19.975Z,14.59
2023-03-03T05:29:47.188Z,14.75
2023-03-03T05:32:14.712Z,14.73
2023-03-03T05:34:42.024Z,14.73
2023-03-03T05:37:10.613Z,14.90
2023-03-03T05:39:38.092Z,14.81
2023-03-03T05:42:05.290Z,14.71
2023-03-03T05:44:32.438Z,14.75
2023-03-03T05:46:59.880Z,14.44
2023-03-03T05:49:27.665Z,14.67
2023-03-03T05:51:54.823Z,14.71
2023-03-03T05:54:22.274Z,14.84
2023-03-03T05:56:49.977Z,14.88
2023-03-03T05:59:17.620Z,14.98
2023-03-03T06:01:45.268Z,14.99
2023-03-03T06:04:12.765Z,14.87
2023-03-03T06:06:40.249Z,14.52
2023-03-03T06:09:07.606Z,14.62
2023-03-03T06:11:35.049Z,14.78
2023-03-03T06:14:02.190Z,14.97
2023-03-03T06:16:29.364Z,15.07
2023-03-03T06:18:56.851Z,14.94
2023-03-03T06:21:24.012Z,14.94
2023-03-03T06:23:51.228Z,15.02
2023-03-03T06:26:18.733Z,15.17
2023-03-03T06:28:45.881Z,15.13
2023-03-03T06:31:13.149Z,15.02
2023-03-03T06:33:42.229Z,14.92
2023-03-03T06:36:09.613Z,15.00
2023-03-03T06:38:36.779Z,15.09
2023-03-03T06:41:07.355Z,14.74
2023-03-03T06:43:35.188Z,13.58
2023-03-03T06:46:02.690Z,13.74
2023-03-03T06:48:30.670Z,13.87
2023-03-03T06:50:58.625Z,13.95
2023-03-03T06:53:25.817Z,14.24
2023-03-03T06:55:53.239Z,13.83
2023-03-03T06:58:21.050Z,13.44
2023-03-03T07:00:57.822Z,12.91
2023-03-03T07:03:43.475Z,12.39
2023-03-03T07:06:17.313Z,12.99
2023-03-03T07:08:44.737Z,13.24
2023-03-03T07:11:12.981Z,13.65
2023-03-03T07:13:40.786Z,13.12
2023-03-03T07:16:10.689Z,13.13
2023-03-03T07:18:41.061Z,13.55
2023-03-03T07:21:17.601Z,13.45
2023-03-03T07:23:45.428Z,13.78
2023-03-03T07:26:13.846Z,13.68
2023-03-03T07:28:41.743Z,13.95
2023-03-03T07:31:28.767Z,14.13
2023-03-03T07:33:56.278Z,14.29
2023-03-03T07:36:27.796Z,14.31
2023-03-03T07:38:55.664Z,14.24
2023-03-03T07:41:26.302Z,13.74
2023-03-03T07:43:57.391Z,13.96
2023-03-03T07:46:27.776Z,14.25
2023-03-03T07:48:55.439Z,14.66
2023-03-03T07:51:25.590Z,14.77
2023-03-03T07:53:54.150Z,14.78
2023-03-03T07:56:25.223Z,15.12
2023-03-03T07:58:53.210Z,14.94
2023-03-03T08:01:40.346Z,15.23
2023-03-03T08:04:16.755Z,15.21
2023-03-03T08:06:53.211Z,15.25
2023-03-03T08:09:20.610Z,15.26
2023-03-03T08:12:06.049Z,15.17
2023-03-03T08:14:34.515Z,15.07
2023-03-03T08:17:02.105Z,14.99
2023-03-03T08:19:30.266Z,15.14
2023-03-03T08:22:09.768Z,15.19
2023-03-03T08:24:38.503Z,15.06
2023-03-03T08:27:06.063Z,15.29
2023-03-03T08:29:33.535Z,14.80
2023-03-03T08:32:00.770Z,14.96
2023-03-03T08:34:28.420Z,15.05
2023-03-03T08:36:58.181Z,14.47
2023-03-03T08:39:25.332Z,14.75
2023-03-03T08:41:52.841Z,14.55
2023-03-03T08:44:20.711Z,14.49
2023-03-03T08:46:47.952Z,14.65
2023-03-03T08:49:15.441Z,14.10
2023-03-03T08:51:42.580Z,14.43
2023-03-03T08:54:09.718Z,14.82
2023-03-03T08:56:37.204Z,14.21
2023-03-03T08:59:04.444Z,13.91
2023-03-03T09:01:32.064Z,13.90
2023-03-03T09:03:59.625Z,13.79
2023-03-03T09:06:26.884Z,13.66
2023-03-03T09:08:54.961Z,14.39
2023-03-03T09:11:26.235Z,15.09
2023-03-03T09:13:59.394Z,14.78
2023-03-03T09:16:27.375Z,14.82
2023-03-03T09:18:54.605Z,15.09
2023-03-03T09:21:23.390Z,14.15
2023-03-03T09:23:50.796Z,14.78
2023-03-03T09:26:47.390Z,14.62
2023-03-03T09:29:14.784Z,14.65
2023-03-03T09:31:51.972Z,14.81
2023-03-03T09:34:23.532Z,13.06
2023-03-03T09:36:53.544Z,14.32
2023-03-03T09:39:25.327Z,13.68
2023-03-03T09:42:01.654Z,14.27
2023-03-03T09:44:42.850Z,13.37
2023-03-03T09:47:09.952Z,13.74
2023-03-03T09:49:58.856Z,14.17
2023-03-03T09:52:30.717Z,14.33
2023-03-03T09:55:04.205Z,15.14
2023-03-03T09:57:43.417Z,13.88
2023-03-03T10:00:19.957Z,14.79
2023-03-03T10:02:51.917Z,14.02
2023-03-03T10:05:39.170Z,14.26
2023-03-03T10:08:19.059Z,14.86
2023-03-03T10:10:51.426Z,15.30
2023-03-03T10:13:31.226Z,14.90
2023-03-03T10:16:13.754Z,14.98
2023-03-03T10:18:53.042Z,15.26
2023-03-03T10:21:23.792Z,14.21
2023-03-03T10:23:57.660Z,14.42
2023-03-03T10:26:49.093Z,14.76
2023-03-03T10:29:22.723Z,14.59
2023-03-03T10:31:59.177Z,14.35
2023-03-03T10:34:29.436Z,14.23
2023-03-03T10:37:05.386Z,13.70
2023-03-03T10:39:47.820Z,14.75
2023-03-03T10:42:17.183Z,13.85
2023-03-03T10:45:03.520Z,14.99
2023-03-03T10:47:33.955Z,15.87
2023-03-03T10:50:20.062Z,15.41
2023-03-03T10:52:47.706Z,14.63
2023-03-03T10:55:38.300Z,15.22
2023-03-03T10:58:12.220Z,15.77
2023-03-03T11:00:46.750Z,15.94
2023-03-03T11:03:39.553Z,13.91
2023-03-03T11:06:19.121Z,14.04
2023-03-03T11:08:49.683Z,14.09
2023-03-03T11:11:17.087Z,14.44
2023-03-03T11:13:48.149Z,13.95
2023-03-03T11:16:15.343Z,14.89
2023-03-03T11:18:55.079Z,15.19
2023-03-03T11:21:32.731Z,14.60
2023-03-03T11:24:12.283Z,15.26
2023-03-03T11:26:39.474Z,15.85
2023-03-03T11:29:13.295Z,15.90
2023-03-03T11:31:43.245Z,16.14
2023-03-03T11:34:29.184Z,15.37
2023-03-03T11:37:16.572Z,16.11
2023-03-03T11:39:43.991Z,16.58
2023-03-03T11:42:28.567Z,16.11
2023-03-03T11:44:57.123Z,16.03
2023-03-03T11:47:26.855Z,16.41
2023-03-03T11:49:56.704Z,16.81
2023-03-03T11:52:43.135Z,16.90
2023-03-03T11:55:23.653Z,15.73
2023-03-03T11:57:54.153Z,15.29
2023-03-03T12:00:21.405Z,16.05
2023-03-03T12:02:55.769Z,16.19
2023-03-03T12:05:46.372Z,16.59
2023-03-03T12:08:17.729Z,16.63
2023-03-03T12:10:45.146Z,16.17
2023-03-03T12:13:31.336Z,16.58
2023-03-03T12:16:11.498Z,16.48
2023-03-03T12:19:02.144Z,17.07
2023-03-03T12:21:29.859Z,16.83
2023-03-03T12:24:03.030Z,16.41
2023-03-03T12:26:37.398Z,16.53
2023-03-03T12:29:04.892Z,15.18
2023-03-03T12:31:35.543Z,15.40
2023-03-03T12:34:05.411Z,15.24
2023-03-03T12:36:35.859Z,15.70
2023-03-03T12:39:25.362Z,15.86
2023-03-03T12:42:04.963Z,16.14
2023-03-03T12:44:37.521Z,15.31
2023-03-03T12:47:08.024Z,16.04
2023-03-03T12:49:44.101Z,16.60
2023-03-03T12:52:36.229Z,17.05
2023-03-03T12:55:10.390Z,17.48
2023-03-03T12:57:56.638Z,16.24
2023-03-03T13:00:42.657Z,17.14
2023-03-03T13:03:10.441Z,17.53
2023-03-03T13:05:50.183Z,17.36
2023-03-03T13:08:20.403Z,16.74
2023-03-03T13:10:56.876Z,17.05
2023-03-03T13:13:27.032Z,17.48
2023-03-03T13:15:56.066Z,18.08
2023-03-03T13:18:23.663Z,18.40
2023-03-03T13:20:56.084Z,17.71
2023-03-03T13:23:26.590Z,17.90
2023-03-03T13:26:05.102Z,16.64
2023-03-03T13:28:43.327Z,17.38
2023-03-03T13:31:13.755Z,16.79
2023-03-03T13:33:40.954Z,16.97
2023-03-03T13:36:11.782Z,15.34
2023-03-03T13:38:50.158Z,15.86
2023-03-03T13:41:36.315Z,16.67
2023-03-03T13:44:09.577Z,15.97
2023-03-03T13:46:45.317Z,16.16
2023-03-03T13:49:18.988Z,16.43
2023-03-03T13:51:58.602Z,16.39
2023-03-03T13:54:44.139Z,17.15
2023-03-03T13:57:11.300Z,16.95
2023-03-03T13:59:57.457Z,16.40
2023-03-03T14:02:46.139Z,17.57
2023-03-03T14:05:15.751Z,17.02
2023-03-03T14:07:45.474Z,16.92
2023-03-03T14:10:21.849Z,16.99
2023-03-03T14:13:05.631Z,17.75
2023-03-03T14:15:36.982Z,16.52
2023-03-03T14:18:23.015Z,17.36
2023-03-03T14:20:51.689Z,17.24
2023-03-03T14:23:21.729Z,16.83
2023-03-03T14:25:58.068Z,17.05
2023-03-03T14:28:26.762Z,17.34
2023-03-03T14:30:56.732Z,17.14
2023-03-03T14:33:30.265Z,16.63
2023-03-03T14:36:00.296Z,16.80
2023-03-03T14:38:34.626Z,17.47
2023-03-03T14:41:22.175Z,16.86
2023-03-03T14:44:00.663Z,16.59
2023-03-03T14:46:31.474Z,17.20
2023-03-03T14:49:17.767Z,17.82
2023-03-03T14:51:48.829Z,17.63
2023-03-03T14:54:21.744Z,17.54
2023-03-03T14:56:59.483Z,16.86
2023-03-03T14:59:28.422Z,16.84
2023-03-03T15:02:19.937Z,17.11
2023-03-03T15:04:48.879Z,17.68
2023-03-03T15:07:25.947Z,17.47
2023-03-03T15:09:53.801Z,16.56
2023-03-03T15:12:22.058Z,16.47
2023-03-03T15:14:54.328Z,16.68
2023-03-03T15:17:27.440Z,17.09
2023-03-03T15:20:15.273Z,16.91
2023-03-03T15:22:50.089Z,16.92
2023-03-03T15:25:27.610Z,17.00
2023-03-03T15:28:32.441Z,17.00
2023-03-03T15:31:13.813Z,16.95
2023-03-03T15:33:45.510Z,16.09
2023-03-03T15:36:40.429Z,16.66
2023-03-03T15:39:17.635Z,16.93
2023-03-03T15:42:09.200Z,17.37
2023-03-03T15:44:46.839Z,16.99
2023-03-03T15:47:24.474Z,16.72
2023-03-03T15:50:10.934Z,17.14
2023-03-03T15:52:38.350Z,17.40
2023-03-03T15:55:16.453Z,17.00
2023-03-03T15:57:55.573Z,17.35
2023-03-03T16:00:30.261Z,16.93
2023-03-03T16:02:59.238Z,17.39
2023-03-03T16:05:31.953Z,17.70
2023-03-03T16:07:59.650Z,17.38
2023-03-03T16:10:33.091Z,17.33
2023-03-03T16:13:16.063Z,17.37
2023-03-03T16:15:43.661Z,17.64
2023-03-03T16:18:11.074Z,17.70
2023-03-03T16:20:41.105Z,17.47
2023-03-03T16:23:11.433Z,17.13
2023-03-03T16:25:54.855Z,16.97
2023-03-03T16:28:22.303Z,17.05
2023-03-03T16:30:52.236Z,16.97
2023-03-03T16:33:19.844Z,17.06
2023-03-03T16:35:53.231Z,16.72
2023-03-03T16:38:23.405Z,16.86
2023-03-03T16:40:54.714Z,16.61
2023-03-03T16:43:43.878Z,16.74
2023-03-03T16:46:30.187Z,16.61
2023-03-03T16:48:57.826Z,16.24
2023-03-03T16:51:28.259Z,16.46
2023-03-03T16:54:10.128Z,16.33
2023-03-03T16:56:39.455Z,16.24
2023-03-03T16:59:07.066Z,16.14
2023-03-03T17:01:41.576Z,16.13
2023-03-03T17:04:17.598Z,16.38
2023-03-03T17:06:55.447Z,16.22
2023-03-03T17:09:39.655Z,15.77
2023-03-03T17:12:27.566Z,16.19
2023-03-03T17:14:56.741Z,15.99
2023-03-03T17:17:24.171Z,15.69
2023-03-03T17:19:52.484Z,15.64
2023-03-03T17:22:24.413Z,15.72
2023-03-03T17:25:00.810Z,15.55
2023-03-03T17:27:33.636Z,15.40
2023-03-03T17:30:03.979Z,15.42
2023-03-03T17:32:42.585Z,15.47
2023-03-03T17:35:21.473Z,15.54
2023-03-03T17:37:49.838Z,15.32
2023-03-03T17:40:22.716Z,15.37
2023-03-03T17:43:09.267Z,15.45
2023-03-03T17:45:38.118Z,15.36
2023-03-03T17:48:29.337Z,15.35
2023-03-03T17:50:59.497Z,14.99
2023-03-03T17:53:27.146Z,15.03
2023-03-03T17:56:14.306Z,14.88
2023-03-03T17:59:01.016Z,14.53
2023-03-03T18:01:46.936Z,14.65
2023-03-03T18:04:34.666Z,14.79
2023-03-03T18:07:08.244Z,14.75
2023-03-03T18:09:45.395Z,14.44
2023-03-03T18:12:42.413Z,14.50
2023-03-03T18:15:15.506Z,14.39
2023-03-03T18:17:50.932Z,14.31
2023-03-03T18:20:36.114Z,14.44
2023-03-03T18:23:34.227Z,14.28
2023-03-03T18:26:03.665Z,14.21
2023-03-03T18:28:40.105Z,14.27
2023-03-03T18:31:36.438Z,14.44
2023-03-03T18:34:28.912Z,14.12
2023-03-03T18:36:58.616Z,14.09
2023-03-03T18:39:47.601Z,13.93
2023-03-03T18:42:16.799Z,14.02
2023-03-03T18:44:45.709Z,13.77
2023-03-03T18:47:17.669Z,14.00
2023-03-03T18:50:21.874Z,13.71
2023-03-03T18:53:06.086Z,13.58
2023-03-03T18:55:45.566Z,13.55
2023-03-03T18:58:15.692Z,13.82
2023-03-03T19:00:51.387Z,13.70
2023-03-03T19:03:45.976Z,13.59
2023-03-03T19:06:31.318Z,13.51
2023-03-03T19:09:00.411Z,13.19
2023-03-03T19:11:48.164Z,13.41
2023-03-03T19:14:20.655Z,13.22
2023-03-03T19:16:50.584Z,13.20
2023-03-03T19:19:19.464Z,13.09
2023-03-03T19:22:13.328Z,12.55
2023-03-03T19:24:42.524Z,12.76
2023-03-03T19:27:17.098Z,12.96
2023-03-03T19:29:46.047Z,12.94
2023-03-03T19:32:32.831Z,13.13
2023-03-03T19:35:01.350Z,13.13
2023-03-03T19:37:32.031Z,12.97
2023-03-03T19:40:18.240Z,12.90
2023-03-03T19:42:49.406Z,12.73
2023-03-03T19:45:33.119Z,12.49
2023-03-03T19:48:12.648Z,12.33
2023-03-03T19:51:16.852Z,12.49
2023-03-03T19:53:52.452Z,11.92
2023-03-03T19:56:27.147Z,12.37
2023-03-03T19:59:02.641Z,12.63
2023-03-03T20:01:54.429Z,12.16
2023-03-03T20:04:47.757Z,12.41
2023-03-03T20:07:24.560Z,12.30
2023-03-03T20:10:11.937Z,12.47
2023-03-03T20:12:47.806Z,12.52
2023-03-03T20:15:20.313Z,12.58
2023-03-03T20:17:55.160Z,12.46
2023-03-03T20:20:30.201Z,12.46
2023-03-03T20:23:11.689Z,12.38
2023-03-03T20:25:45.995Z,12.44
2023-03-03T20:28:34.033Z,11.63
2023-03-03T20:31:06.117Z,12.15
2023-03-03T20:33:54.849Z,12.05
2023-03-03T20:36:33.815Z,12.13
2023-03-03T20:39:04.996Z,12.01
2023-03-03T20:41:37.702Z,11.84
2023-03-03T20:44:15.411Z,11.98
2023-03-03T20:46:59.047Z,11.95
2023-03-03T20:49:30.999Z,12.22
2023-03-03T20:52:00.164Z,11.97
2023-03-03T20:54:40.995Z,11.74
2023-03-03T20:57:19.589Z,11.87
2023-03-03T21:00:17.428Z,11.86
2023-03-03T21:02:53.246Z,11.94
2023-03-03T21:05:25.543Z,11.52
2023-03-03T21:07:58.733Z,11.63
2023-03-03T21:10:29.268Z,11.61
2023-03-03T21:12:58.802Z,11.57
2023-03-03T21:15:31.424Z,10.94
2023-03-03T21:18:02.000Z,11.17
2023-03-03T21:20:33.760Z,11.43
2023-03-03T21:23:05.515Z,11.51
2023-03-03T21:25:40.158Z,11.59
2023-03-03T21:28:27.305Z,11.55
2023-03-03T21:31:03.973Z,11.27
2023-03-03T21:33:45.284Z,11.22
2023-03-03T21:36:17.520Z,11.32
2023-03-03T21:38:46.277Z,11.17
2023-03-03T21:41:14.002Z,11.28
2023-03-03T21:43:41.425Z,11.64
2023-03-03T21:46:09.353Z,11.08
2023-03-03T21:48:39.690Z,11.16
2023-03-03T21:51:06.944Z,11.28
2023-03-03T21:53:35.411Z,11.47
2023-03-03T21:56:03.288Z,11.22
2023-03-03T21:58:30.454Z,10.70
2023-03-03T22:00:58.025Z,10.96
2023-03-03T22:03:25.482Z,10.88
2023-03-03T22:05:53.643Z,10.81
2023-03-03T22:08:23.425Z,11.04
2023-03-03T22:10:53.846Z,11.12
2023-03-03T22:13:21.066Z,11.39
2023-03-03T22:15:48.634Z,11.30
2023-03-03T22:18:18.318Z,11.16
2023-03-03T22:20:46.157Z,11.25
2023-03-03T22:23:13.899Z,11.30
2023-03-03T22:25:41.722Z,11.05
2023-03-03T22:28:09.138Z,11.32
2023-03-03T22:30:36.834Z,11.44
2023-03-03T22:33:04.329Z,11.37
2023-03-03T22:35:31.654Z,11.27
2023-03-03T22:37:58.927Z,11.14
2023-03-03T22:40:26.447Z,11.22
2023-03-03T22:42:53.665Z,10.26
2023-03-03T22:45:20.823Z,10.83
2023-03-03T22:47:48.341Z,10.64
2023-03-03T22:50:16.884Z,10.56
2023-03-03T22:52:44.111Z,10.53
2023-03-03T22:55:11.717Z,10.40
2023-03-03T22:57:38.902Z,10.89
2023-03-03T23:00:07.333Z,10.66
2023-03-03T23:02:34.910Z,10.53
2023-03-03T23:05:07.789Z,10.56
2023-03-03T23:07:35.472Z,10.56
2023-03-03T23:10:02.971Z,10.66
2023-03-03T23:12:30.142Z,10.47
2023-03-03T23:14:57.650Z,10.49
2023-03-03T23:17:25.015Z,10.66
2023-03-03T23:19:52.250Z,10.31
2023-03-03T23:22:19.765Z,10.11
2023-03-03T23:24:46.957Z,10.50
2023-03-03T23:27:14.236Z,10.61
2023-03-03T23:29:44.445Z,10.31
2023-03-03T23:32:11.636Z,9.92
2023-03-03T23:34:38.816Z,10.29
2023-03-03T23:37:06.263Z,9.99
2023-03-03T23:39:33.428Z,10.14
2023-03-03T23:42:00.602Z,10.21
2023-03-03T23:44:28.024Z,10.26
2023-03-03T23:46:55.227Z,10.28
2023-03-03T23:49:22.451Z,10.16
2023-03-03T23:51:49.887Z,10.06
2023-03-03T23:54:17.098Z,9.92
2023-03-03T23:56:44.250Z,9.69
2023-03-03T23:59:11.698Z,9.82
